• Join FlightAware (Why Join?)
  • Login
  • US Flag 
04:59PM EDT


 

Airport Tracker/Info


-or-


 

Live Flight TrackerFlight Track Log ✈ FLG3780 ✈ 01-May-2013 ✈ KALB - KDTW

Flight Track Log - Related Links

Times and Time Zones

All times are in EDT time to prevent confusion due to time zone crossing. See the FLG3780 flight status page for this flight to view local times or setup timezone preferences in your user account.

Time Position Orientation Groundspeed Altitude Reporting Facility
EDT Latitude Longitude Course Direction KTS MPH feet Rate Location/Type
09:23AM 42.7236 -73.8081 304° West 158 182 1,400  Level Boston Center
09:24AM 42.6672 -73.8208 189° South 224 258 3,100 1,740 Climbing Boston Center
09:24AM 42.6706 -73.8717 275° West 262 302 4,100 2,520 Climbing Boston Center
09:25AM 42.7303 -73.9269 326° Northwest 275 316 7,000 2,880 Climbing Boston Center
09:26AM 42.8287 -74.3009 281° West  Level FlightAware Approximate
09:26AM 42.7964 -73.9822 328° Northwest 275 316 9,900  Level Boston Center
09:27AM 42.8493 -74.4287 283° West  Level FlightAware Approximate
09:27AM 42.8583 -74.0206 336° Northwest 281 323 11,200  Level Boston Center
09:28AM 42.8765 -74.5529 304° West  Level FlightAware Approximate
09:28AM 42.9514 -74.0769 336° Northwest 327 376 13,300  Level Boston Center
09:29AM 43.0228 -74.1811 313° West 343 395 15,500 1,800 Climbing Boston Center
09:30AM 43.0311 -74.3061 275° West 341 392 16,900 1,200 Climbing Boston Center
09:31AM 43.0433 -74.4572 276° West 371 427 18,000 900 Climbing Boston Center
09:32AM 43.0533 -74.5939 276° West 387 445 18,800 900 Climbing Boston Center
09:33AM 43.0644 -74.7619 275° West 400 460 19,900 1,020 Climbing Boston Center
09:34AM 43.0781 -74.9161 277° West 411 473 20,900 900 Climbing Boston Center
09:35AM 43.0853 -75.0528 274° West 411 473 21,700 900 Climbing Boston Center
09:36AM 43.0983 -75.2125 276° West 411 473 22,800 1,020 Climbing Boston Center
09:37AM 43.1089 -75.3694 275° West 416 479 23,800 900 Climbing Boston Center
09:38AM 43.1172 -75.5292 274° West 416 479 24,600 720 Climbing Boston Center
09:39AM 43.1294 -75.6864 276° West 426 490 25,300 660 Climbing Boston Center
09:40AM 43.1394 -75.8464 275° West 426 490 26,000 660 Climbing Boston Center
09:43AM 43.1581 -76.2369 274° West 406 467 27,500 600 Climbing Cleveland Center
09:44AM 43.1433 -76.4031 263° West 429 494 28,000 480 Climbing Cleveland Center
09:45AM 43.1306 -76.5689 264° West 439 505 28,500 480 Climbing Cleveland Center
09:46AM 43.1167 -76.7150 263° West 439 505 29,000 480 Climbing Cleveland Center
09:47AM 43.1014 -76.8836 263° West 446 513 29,500 480 Climbing Cleveland Center
09:48AM 43.0878 -77.0494 264° West 446 513 30,000 480 Climbing Cleveland Center
09:49AM 43.0719 -77.2181 263° West 446 513 30,500 480 Climbing Cleveland Center
09:50AM 43.0558 -77.3839 262° West 446 513 31,000 480 Climbing Cleveland Center
09:51AM 43.0417 -77.5522 263° West 446 513 31,500 480 Climbing Cleveland Center
09:52AM 43.0250 -77.7147 262° West 446 513 32,000 480 Climbing Cleveland Center
09:53AM 43.0100 -77.8803 263° West 446 513 32,500 540 Climbing Cleveland Center
09:54AM 42.9914 -78.0628 262° West 446 513 33,100 540 Climbing Cleveland Center
09:55AM 42.9758 -78.2222 262° West 446 513 33,600 420 Climbing Cleveland Center
09:56AM 42.9583 -78.3817 262° West 446 513 34,000 180 Climbing Cleveland Center
09:57AM 42.9425 -78.5439 262° West 440 506 34,000  Level Cleveland Center
09:58AM 42.9242 -78.7033 261° West 440 506 34,000  Level Cleveland Center
09:59AM 42.8997 -78.8686 259° West 440 506 34,000  Level Cleveland Center
10:00AM 42.8750 -79.0308 258° West 440 506 34,000  Level Cleveland Center
10:01AM 42.8519 -79.1928 259° West 440 506 34,000  Level Cleveland Center
10:02AM 42.8308 -79.3517 260° West 440 506 34,000 -240 Level Cleveland Center
10:03AM 42.8053 -79.5106 258° West 440 506 33,600 -540 Descending Cleveland Center
10:04AM 42.7839 -79.6694 260° West 429 494 33,000 -660 Descending Cleveland Center
10:05AM 42.7578 -79.8281 257° West 429 494 32,300 -1,080 Descending Cleveland Center
10:06AM 42.7442 -79.9953 264° West 429 494 30,900 -1,500 Descending Cleveland Center
10:07AM 42.7367 -80.1619 267° West 446 513 29,400 -1,500 Descending Cleveland Center
10:08AM 42.7308 -80.3261 267° West 446 513 28,000 -720 Descending Cleveland Center
10:09AM 42.7247 -80.4872 267° West 434 499 28,000  Level Cleveland Center
10:10AM 42.7164 -80.6453 266° West 429 494 28,000  Level Cleveland Center
10:11AM 42.7100 -80.8036 267° West 423 487 28,000  Level Cleveland Center
10:12AM 42.6992 -80.9675 265° West 429 494 28,000 -360 Level Cleveland Center
10:13AM 42.6819 -81.1283 262° West 429 494 27,300 -1,140 Descending Cleveland Center
10:14AM 42.6622 -81.2833 260° West 429 494 25,800 -1,440 Descending Cleveland Center
10:15AM 42.6467 -81.4272 262° West 429 494 24,500 -1,440 Descending Cleveland Center
10:16AM 42.6267 -81.5792 260° West 422 486 23,000 -1,260 Descending Cleveland Center
10:17AM 42.6108 -81.7286 262° West 422 486 22,000 -1,020 Descending Cleveland Center
10:18AM 42.5906 -81.8775 260° West 416 479 21,000 -1,500 Descending Cleveland Center
10:19AM 42.5742 -82.0267 262° West 410 472 19,000 -1,860 Descending Cleveland Center
10:20AM 42.5556 -82.1644 260° West 399 459 17,300 -1,980 Descending Cleveland Center
10:20AM 42.5458 -82.2714 263° West 364 419 15,700 -2,040 Descending Cleveland Center
10:21AM 42.5392 -82.3022 254° West 386 444 15,300 -1,860 Descending Cleveland Center
10:22AM 42.5225 -82.4342 260° West 371 427 13,300 -1,680 Descending Cleveland Center
10:23AM 42.5017 -82.5575 257° West 366 421 12,000 -960 Descending Cleveland Center
10:24AM 42.4664 -82.6606 245° Southwest 334 384 11,400 -1,200 Descending Cleveland Center
10:25AM 42.4333 -82.7661 247° West 282 325 9,700 -1,680 Descending Cleveland Center
10:26AM 42.4353 -82.8789 271° West 280 322 8,000 -1,440 Descending Cleveland Center
10:27AM 42.4231 -82.9628 259° West 273 314 6,800 -1,140 Descending Cleveland Center
10:28AM 42.4017 -83.0886 257° West 261 300 5,600 -960 Descending Cleveland Center
10:29AM 42.3836 -83.1525 249° West 273 314 4,900 -1,140 Descending Cleveland Center
10:30AM 42.3503 -83.2383 242° Southwest 228 262 3,700 -1,320 Descending Cleveland Center